African Piper — C6BO2 — position and weather

sailwx.info

Track history (hours):
 
Tides and Currents Weather Stations Pressure Air Temp Water Temp Dewpoint Dewpoint Depression Visibility Wind Speed Wind Dir Waves Ship Positions

African Piper

Last reported at 2017-Sep-13 18:40 UTC. Time now 2017-Sep-25 13:38 UTC.
Position N 01°15' E 103°24'.
Warning: this ship's position is 11 days out of date.

Length 180 m; draft 8.1 m.

Type: Cargo ship. MMSI: 311000316.

Date/timePositionNaut miles runAvg speedWind from/ knotsBaromVisibWave heightAir tempDewpointWater temp
2017-Sep-13 18:40N 01°15' E 103°24'511.8
2017-Sep-13 18:16N 01°14' E 103°29'512.1
2017-Sep-13 17:50N 01°12' E 103°34'412.0
2017-Sep-13 17:29N 01°12' E 103°38'611.7
2017-Sep-13 16:58N 01°09' E 103°44'5 9.8
2017-Sep-13 16:30N 01°11' E 103°48'510.4
2017-Sep-13 16:00N 01°13' E 103°53'510.7
2017-Sep-13 15:30N 01°15' E 103°58'610.5
2017-Sep-13 14:55N 01°16' E 104°03'2 0.1
2017-Sep-12 23:22N 01°18' E 104°04'0 0.1
2017-Sep-12 22:54N 01°18' E 104°04'2 3.6
2017-Sep-12 22:24N 01°17' E 104°05'  
2017-Sep-05 00:55N 30°01' E 123°40'610.7
2017-Sep-05 00:19N 30°07' E 123°42'611.1
2017-Sep-04 23:46N 30°13' E 123°44'411.1
2017-Sep-04 23:25N 30°17' E 123°45'5111.9
2017-Sep-04 19:09N 31°06' E 123°57'312.2
2017-Sep-04 18:52N 31°10' E 123°58'512.3
2017-Sep-04 18:29N 31°14' E 123°60'911.9
2017-Sep-04 17:42N 31°23' E 124°02'411.4
2017-Sep-04 17:19N 31°28' E 124°03'  
Track history (hours):
 
Tides and Currents Weather Stations Pressure Air Temp Water Temp Dewpoint Dewpoint Depression Visibility Wind Speed Wind Dir Waves Ship Positions

African Piper

Last reported at 2017-Sep-13 18:40 UTC. Time now 2017-Sep-25 13:38 UTC.
Position N 01°15' E 103°24'.
Warning: this ship's position is 11 days out of date.

Length 180 m; draft 8.1 m.

Type: Cargo ship. MMSI: 311000316.

Date/timePositionNaut miles runAvg speedWind from/ knotsBaromVisibWave heightAir tempDewpointWater temp
2017-Sep-13 18:40N 01°15' E 103°24'511.8
2017-Sep-13 18:16N 01°14' E 103°29'512.1
2017-Sep-13 17:50N 01°12' E 103°34'412.0
2017-Sep-13 17:29N 01°12' E 103°38'611.7
2017-Sep-13 16:58N 01°09' E 103°44'5 9.8
2017-Sep-13 16:30N 01°11' E 103°48'510.4
2017-Sep-13 16:00N 01°13' E 103°53'510.7
2017-Sep-13 15:30N 01°15' E 103°58'610.5
2017-Sep-13 14:55N 01°16' E 104°03'2 0.1
2017-Sep-12 23:22N 01°18' E 104°04'0 0.1
2017-Sep-12 22:54N 01°18' E 104°04'2 3.6
2017-Sep-12 22:24N 01°17' E 104°05'  
2017-Sep-05 00:55N 30°01' E 123°40'610.7
2017-Sep-05 00:19N 30°07' E 123°42'611.1
2017-Sep-04 23:46N 30°13' E 123°44'411.1
2017-Sep-04 23:25N 30°17' E 123°45'5111.9
2017-Sep-04 19:09N 31°06' E 123°57'312.2
2017-Sep-04 18:52N 31°10' E 123°58'512.3
2017-Sep-04 18:29N 31°14' E 123°60'911.9
2017-Sep-04 17:42N 31°23' E 124°02'411.4
2017-Sep-04 17:19N 31°28' E 124°03'  

Dump ship's entire track history